sensor_id;sensor_type;location;lat;lon;timestamp;P1;durP1;ratioP1;P2;durP2;ratioP2
10637;SDS011;47007;49.252;8.904;2023-08-06T00:00:39;1.50;;;1.40;;
10637;SDS011;47007;49.252;8.904;2023-08-06T00:01:21;1.98;;;1.88;;
10637;SDS011;47007;49.252;8.904;2023-08-06T00:02:04;2.13;;;1.90;;
10637;SDS011;47007;49.252;8.904;2023-08-06T00:02:46;1.88;;;1.67;;
10637;SDS011;47007;49.252;8.904;2023-08-06T00:03:28;1.70;;;1.60;;
10637;SDS011;47007;49.252;8.904;2023-08-06T00:04:10;1.45;;;1.40;;
10637;SDS011;47007;49.252;8.904;2023-08-06T00:04:51;2.00;;;1.90;;
10637;SDS011;47007;49.252;8.904;2023-08-06T00:05:34;2.55;;;1.73;;
10637;SDS011;47007;49.252;8.904;2023-08-06T00:06:16;2.35;;;1.83;;
10637;SDS011;47007;49.252;8.904;2023-08-06T00:06:57;2.08;;;1.67;;
10637;SDS011;47007;49.252;8.904;2023-08-06T00:07:39;1.50;;;1.40;;
10637;SDS011;47007;49.252;8.904;2023-08-06T00:08:21;1.20;;;1.20;;
10637;SDS011;47007;49.252;8.904;2023-08-06T00:09:03;1.90;;;1.73;;
10637;SDS011;47007;49.252;8.904;2023-08-06T00:09:44;1.80;;;1.45;;
10637;SDS011;47007;49.252;8.904;2023-08-06T00:10:26;2.22;;;1.40;;
10637;SDS011;47007;49.252;8.904;2023-08-06T00:11:08;1.50;;;1.40;;
10637;SDS011;47007;49.252;8.904;2023-08-06T00:11:50;1.45;;;1.42;;
10637;SDS011;47007;49.252;8.904;2023-08-06T00:12:32;1.90;;;1.80;;
10637;SDS011;47007;49.252;8.904;2023-08-06T00:13:13;2.03;;;1.92;;
10637;SDS011;47007;49.252;8.904;2023-08-06T00:13:55;1.85;;;1.75;;
10637;SDS011;47007;49.252;8.904;2023-08-06T00:14:37;1.92;;;1.77;;
10637;SDS011;47007;49.252;8.904;2023-08-06T00:15:19;1.80;;;1.70;;
10637;SDS011;47007;49.252;8.904;2023-08-06T00:16:11;3.05;;;1.50;;
10637;SDS011;47007;49.252;8.904;2023-08-06T00:16:53;1.42;;;1.42;;
10637;SDS011;47007;49.252;8.904;2023-08-06T00:17:35;1.50;;;1.40;;
10637;SDS011;47007;49.252;8.904;2023-08-06T00:18:17;2.67;;;1.30;;
10637;SDS011;47007;49.252;8.904;2023-08-06T00:18:59;2.72;;;1.70;;
10637;SDS011;47007;49.252;8.904;2023-08-06T00:19:41;2.03;;;1.77;;
10637;SDS011;47007;49.252;8.904;2023-08-06T00:20:23;1.60;;;1.50;;
10637;SDS011;47007;49.252;8.904;2023-08-06T00:21:04;1.98;;;1.80;;
10637;SDS011;47007;49.252;8.904;2023-08-06T00:21:46;2.15;;;1.95;;
10637;SDS011;47007;49.252;8.904;2023-08-06T00:22:28;1.65;;;1.55;;
10637;SDS011;47007;49.252;8.904;2023-08-06T00:23:10;1.88;;;1.77;;
10637;SDS011;47007;49.252;8.904;2023-08-06T00:23:51;2.88;;;1.83;;
10637;SDS011;47007;49.252;8.904;2023-08-06T00:24:34;2.13;;;1.95;;
10637;SDS011;47007;49.252;8.904;2023-08-06T00:25:16;1.38;;;1.38;;
10637;SDS011;47007;49.252;8.904;2023-08-06T00:25:57;1.73;;;1.63;;
10637;SDS011;47007;49.252;8.904;2023-08-06T00:26:39;1.70;;;1.60;;
10637;SDS011;47007;49.252;8.904;2023-08-06T00:27:21;1.83;;;1.50;;
10637;SDS011;47007;49.252;8.904;2023-08-06T00:28:03;1.92;;;1.77;;
10637;SDS011;47007;49.252;8.904;2023-08-06T00:28:45;1.30;;;1.30;;
10637;SDS011;47007;49.252;8.904;2023-08-06T00:29:27;1.60;;;1.50;;
10637;SDS011;47007;49.252;8.904;2023-08-06T00:30:09;1.50;;;1.40;;
10637;SDS011;47007;49.252;8.904;2023-08-06T00:30:54;2.35;;;1.83;;
10637;SDS011;47007;49.252;8.904;2023-08-06T00:31:36;1.67;;;1.58;;
10637;SDS011;47007;49.252;8.904;2023-08-06T00:32:18;1.60;;;1.50;;
10637;SDS011;47007;49.252;8.904;2023-08-06T00:33:00;2.72;;;1.80;;
10637;SDS011;47007;49.252;8.904;2023-08-06T00:33:42;1.38;;;1.30;;
10637;SDS011;47007;49.252;8.904;2023-08-06T00:34:23;2.30;;;1.80;;
10637;SDS011;47007;49.252;8.904;2023-08-06T00:35:05;2.00;;;1.60;;
10637;SDS011;47007;49.252;8.904;2023-08-06T00:35:48;1.90;;;1.80;;
10637;SDS011;47007;49.252;8.904;2023-08-06T00:36:30;1.90;;;1.80;;
10637;SDS011;47007;49.252;8.904;2023-08-06T00:37:11;1.73;;;1.63;;
10637;SDS011;47007;49.252;8.904;2023-08-06T00:37:53;1.80;;;1.70;;
10637;SDS011;47007;49.252;8.904;2023-08-06T00:38:35;1.70;;;1.60;;
10637;SDS011;47007;49.252;8.904;2023-08-06T00:39:17;1.65;;;1.55;;
10637;SDS011;47007;49.252;8.904;2023-08-06T00:39:58;1.83;;;1.60;;
10637;SDS011;47007;49.252;8.904;2023-08-06T00:40:40;1.67;;;1.58;;
10637;SDS011;47007;49.252;8.904;2023-08-06T00:41:22;1.48;;;1.38;;
10637;SDS011;47007;49.252;8.904;2023-08-06T00:42:04;2.08;;;1.70;;
10637;SDS011;47007;49.252;8.904;2023-08-06T00:42:47;3.00;;;1.88;;
10637;SDS011;47007;49.252;8.904;2023-08-06T00:43:29;4.50;;;1.80;;
10637;SDS011;47007;49.252;8.904;2023-08-06T00:44:10;2.75;;;2.08;;
10637;SDS011;47007;49.252;8.904;2023-08-06T00:44:53;2.58;;;1.98;;
10637;SDS011;47007;49.252;8.904;2023-08-06T00:45:36;1.80;;;1.70;;
10637;SDS011;47007;49.252;8.904;2023-08-06T00:46:18;2.28;;;1.70;;
10637;SDS011;47007;49.252;8.904;2023-08-06T00:47:00;2.45;;;2.00;;
10637;SDS011;47007;49.252;8.904;2023-08-06T00:47:43;1.92;;;1.70;;
10637;SDS011;47007;49.252;8.904;2023-08-06T00:48:25;2.10;;;1.98;;
10637;SDS011;47007;49.252;8.904;2023-08-06T00:49:09;1.50;;;1.40;;
10637;SDS011;47007;49.252;8.904;2023-08-06T00:49:51;2.45;;;1.77;;
10637;SDS011;47007;49.252;8.904;2023-08-06T00:50:33;1.63;;;1.52;;
10637;SDS011;47007;49.252;8.904;2023-08-06T00:51:15;2.03;;;1.83;;
10637;SDS011;47007;49.252;8.904;2023-08-06T00:51:57;2.47;;;1.80;;
10637;SDS011;47007;49.252;8.904;2023-08-06T00:52:39;2.20;;;1.73;;
10637;SDS011;47007;49.252;8.904;2023-08-06T00:53:21;2.30;;;1.80;;
10637;SDS011;47007;49.252;8.904;2023-08-06T00:54:04;2.47;;;2.00;;
10637;SDS011;47007;49.252;8.904;2023-08-06T00:54:45;1.92;;;1.65;;
10637;SDS011;47007;49.252;8.904;2023-08-06T00:55:27;3.50;;;1.83;;
10637;SDS011;47007;49.252;8.904;2023-08-06T00:56:09;1.50;;;1.40;;
10637;SDS011;47007;49.252;8.904;2023-08-06T00:56:51;2.75;;;1.83;;
10637;SDS011;47007;49.252;8.904;2023-08-06T00:57:33;2.38;;;1.80;;
10637;SDS011;47007;49.252;8.904;2023-08-06T00:58:15;2.35;;;1.73;;
10637;SDS011;47007;49.252;8.904;2023-08-06T00:58:58;1.77;;;1.67;;
10637;SDS011;47007;49.252;8.904;2023-08-06T00:59:40;1.85;;;1.75;;
10637;SDS011;47007;49.252;8.904;2023-08-06T01:00:22;1.73;;;1.63;;
10637;SDS011;47007;49.252;8.904;2023-08-06T01:01:05;1.60;;;1.50;;
10637;SDS011;47007;49.252;8.904;2023-08-06T01:01:47;1.40;;;1.30;;
10637;SDS011;47007;49.252;8.904;2023-08-06T01:02:29;1.45;;;1.35;;
10637;SDS011;47007;49.252;8.904;2023-08-06T01:03:11;2.20;;;1.60;;
10637;SDS011;47007;49.252;8.904;2023-08-06T01:03:53;1.30;;;1.20;;
10637;SDS011;47007;49.252;8.904;2023-08-06T01:04:35;1.50;;;1.40;;
10637;SDS011;47007;49.252;8.904;2023-08-06T01:05:17;1.45;;;1.35;;
10637;SDS011;47007;49.252;8.904;2023-08-06T01:05:59;1.92;;;1.30;;
10637;SDS011;47007;49.252;8.904;2023-08-06T01:06:46;1.55;;;1.45;;
10637;SDS011;47007;49.252;8.904;2023-08-06T01:09:35;1.65;;;1.55;;
10637;SDS011;47007;49.252;8.904;2023-08-06T01:13:18;2.58;;;1.55;;
10637;SDS011;47007;49.252;8.904;2023-08-06T01:14:06;1.58;;;1.48;;
10637;SDS011;47007;49.252;8.904;2023-08-06T01:14:57;1.27;;;1.17;;
10637;SDS011;47007;49.252;8.904;2023-08-06T01:15:46;1.20;;;1.20;;
10637;SDS011;47007;49.252;8.904;2023-08-06T01:16:31;1.50;;;1.40;;
10637;SDS011;47007;49.252;8.904;2023-08-06T01:17:14;2.47;;;1.63;;
10637;SDS011;47007;49.252;8.904;2023-08-06T01:17:57;1.70;;;1.60;;
10637;SDS011;47007;49.252;8.904;2023-08-06T01:18:40;1.20;;;1.10;;
10637;SDS011;47007;49.252;8.904;2023-08-06T01:19:23;1.23;;;1.13;;
10637;SDS011;47007;49.252;8.904;2023-08-06T01:20:05;1.33;;;1.27;;
10637;SDS011;47007;49.252;8.904;2023-08-06T01:20:47;1.33;;;1.23;;
10637;SDS011;47007;49.252;8.904;2023-08-06T01:21:29;1.63;;;1.20;;
10637;SDS011;47007;49.252;8.904;2023-08-06T01:22:10;1.30;;;1.20;;
10637;SDS011;47007;49.252;8.904;2023-08-06T01:22:52;1.20;;;1.20;;
10637;SDS011;47007;49.252;8.904;2023-08-06T01:23:34;1.30;;;1.20;;
10637;SDS011;47007;49.252;8.904;2023-08-06T01:24:16;0.90;;;0.90;;
10637;SDS011;47007;49.252;8.904;2023-08-06T01:24:58;1.95;;;1.45;;
10637;SDS011;47007;49.252;8.904;2023-08-06T01:25:49;1.05;;;0.93;;
10637;SDS011;47007;49.252;8.904;2023-08-06T01:27:50;1.70;;;1.60;;
10637;SDS011;47007;49.252;8.904;2023-08-06T01:29:39;1.38;;;1.30;;
10637;SDS011;47007;49.252;8.904;2023-08-06T01:30:27;1.30;;;1.20;;
10637;SDS011;47007;49.252;8.904;2023-08-06T01:31:26;1.17;;;1.08;;
10637;SDS011;47007;49.252;8.904;2023-08-06T01:32:12;2.60;;;1.35;;
10637;SDS011;47007;49.252;8.904;2023-08-06T01:33:00;1.67;;;1.27;;
10637;SDS011;47007;49.252;8.904;2023-08-06T01:33:45;4.65;;;1.40;;
10637;SDS011;47007;49.252;8.904;2023-08-06T01:34:31;1.75;;;1.25;;
10637;SDS011;47007;49.252;8.904;2023-08-06T01:35:15;1.63;;;1.50;;
10637;SDS011;47007;49.252;8.904;2023-08-06T01:35:58;1.50;;;1.40;;
10637;SDS011;47007;49.252;8.904;2023-08-06T01:36:41;1.95;;;1.50;;
10637;SDS011;47007;49.252;8.904;2023-08-06T01:37:23;1.20;;;1.20;;
10637;SDS011;47007;49.252;8.904;2023-08-06T01:38:05;1.50;;;1.40;;
10637;SDS011;47007;49.252;8.904;2023-08-06T01:38:47;1.70;;;1.60;;
10637;SDS011;47007;49.252;8.904;2023-08-06T01:39:29;2.03;;;1.50;;
10637;SDS011;47007;49.252;8.904;2023-08-06T01:40:17;1.70;;;1.60;;
10637;SDS011;47007;49.252;8.904;2023-08-06T01:40:59;1.73;;;1.58;;
10637;SDS011;47007;49.252;8.904;2023-08-06T01:41:40;2.30;;;1.65;;
10637;SDS011;47007;49.252;8.904;2023-08-06T01:42:23;2.95;;;1.42;;
10637;SDS011;47007;49.252;8.904;2023-08-06T01:43:04;2.13;;;1.52;;
10637;SDS011;47007;49.252;8.904;2023-08-06T01:43:47;1.33;;;1.23;;
10637;SDS011;47007;49.252;8.904;2023-08-06T01:44:29;3.47;;;1.60;;
10637;SDS011;47007;49.252;8.904;2023-08-06T01:45:11;1.63;;;1.50;;
10637;SDS011;47007;49.252;8.904;2023-08-06T01:45:53;1.60;;;1.50;;
10637;SDS011;47007;49.252;8.904;2023-08-06T01:46:34;1.58;;;1.48;;
10637;SDS011;47007;49.252;8.904;2023-08-06T01:47:16;2.08;;;1.98;;
10637;SDS011;47007;49.252;8.904;2023-08-06T01:47:58;1.48;;;1.38;;
10637;SDS011;47007;49.252;8.904;2023-08-06T01:48:40;2.45;;;1.63;;
10637;SDS011;47007;49.252;8.904;2023-08-06T01:49:22;1.65;;;1.55;;
10637;SDS011;47007;49.252;8.904;2023-08-06T01:50:04;1.80;;;1.70;;
10637;SDS011;47007;49.252;8.904;2023-08-06T01:50:46;2.42;;;1.55;;
10637;SDS011;47007;49.252;8.904;2023-08-06T01:51:28;1.23;;;1.13;;
10637;SDS011;47007;49.252;8.904;2023-08-06T01:52:09;1.80;;;1.58;;
10637;SDS011;47007;49.252;8.904;2023-08-06T01:52:51;1.77;;;1.67;;
10637;SDS011;47007;49.252;8.904;2023-08-06T01:53:33;3.25;;;1.92;;
10637;SDS011;47007;49.252;8.904;2023-08-06T01:54:15;1.70;;;1.60;;
10637;SDS011;47007;49.252;8.904;2023-08-06T01:54:58;2.15;;;1.90;;
10637;SDS011;47007;49.252;8.904;2023-08-06T01:55:40;2.10;;;1.90;;
10637;SDS011;47007;49.252;8.904;2023-08-06T01:56:22;1.70;;;1.60;;
10637;SDS011;47007;49.252;8.904;2023-08-06T01:57:04;1.98;;;1.70;;
10637;SDS011;47007;49.252;8.904;2023-08-06T01:57:46;2.60;;;1.80;;
10637;SDS011;47007;49.252;8.904;2023-08-06T01:58:28;1.85;;;1.75;;
10637;SDS011;47007;49.252;8.904;2023-08-06T01:59:09;1.77;;;1.67;;
10637;SDS011;47007;49.252;8.904;2023-08-06T01:59:51;2.33;;;2.05;;
10637;SDS011;47007;49.252;8.904;2023-08-06T02:00:33;1.73;;;1.45;;
10637;SDS011;47007;49.252;8.904;2023-08-06T02:01:15;1.90;;;1.80;;
10637;SDS011;47007;49.252;8.904;2023-08-06T02:01:57;1.65;;;1.40;;
10637;SDS011;47007;49.252;8.904;2023-08-06T02:02:39;1.52;;;1.42;;
10637;SDS011;47007;49.252;8.904;2023-08-06T02:03:23;1.67;;;1.58;;
10637;SDS011;47007;49.252;8.904;2023-08-06T02:04:05;2.10;;;1.83;;
10637;SDS011;47007;49.252;8.904;2023-08-06T02:04:47;2.70;;;1.80;;
10637;SDS011;47007;49.252;8.904;2023-08-06T02:05:29;1.83;;;1.73;;
10637;SDS011;47007;49.252;8.904;2023-08-06T02:06:11;2.30;;;1.63;;
10637;SDS011;47007;49.252;8.904;2023-08-06T02:06:52;1.77;;;1.60;;
10637;SDS011;47007;49.252;8.904;2023-08-06T02:07:34;1.77;;;1.42;;
10637;SDS011;47007;49.252;8.904;2023-08-06T02:08:17;2.30;;;1.63;;
10637;SDS011;47007;49.252;8.904;2023-08-06T02:08:59;1.98;;;1.88;;
10637;SDS011;47007;49.252;8.904;2023-08-06T02:09:40;2.05;;;1.50;;
10637;SDS011;47007;49.252;8.904;2023-08-06T02:10:23;1.70;;;1.60;;
10637;SDS011;47007;49.252;8.904;2023-08-06T02:11:04;1.48;;;1.38;;
10637;SDS011;47007;49.252;8.904;2023-08-06T02:11:46;2.47;;;1.35;;
10637;SDS011;47007;49.252;8.904;2023-08-06T02:12:28;1.63;;;1.45;;
10637;SDS011;47007;49.252;8.904;2023-08-06T02:13:10;1.33;;;1.27;;
10637;SDS011;47007;49.252;8.904;2023-08-06T02:13:52;1.48;;;1.38;;
10637;SDS011;47007;49.252;8.904;2023-08-06T02:14:34;2.35;;;1.20;;
10637;SDS011;47007;49.252;8.904;2023-08-06T02:15:16;2.10;;;1.33;;
10637;SDS011;47007;49.252;8.904;2023-08-06T02:15:58;2.70;;;1.35;;
10637;SDS011;47007;49.252;8.904;2023-08-06T02:16:40;2.05;;;1.52;;
10637;SDS011;47007;49.252;8.904;2023-08-06T02:17:21;3.03;;;1.52;;
10637;SDS011;47007;49.252;8.904;2023-08-06T02:18:03;2.60;;;1.65;;
10637;SDS011;47007;49.252;8.904;2023-08-06T02:18:45;1.73;;;1.63;;
10637;SDS011;47007;49.252;8.904;2023-08-06T02:19:37;1.60;;;1.50;;
10637;SDS011;47007;49.252;8.904;2023-08-06T02:20:19;1.25;;;1.15;;
10637;SDS011;47007;49.252;8.904;2023-08-06T02:21:01;1.77;;;1.67;;
10637;SDS011;47007;49.252;8.904;2023-08-06T02:21:43;3.00;;;1.80;;
10637;SDS011;47007;49.252;8.904;2023-08-06T02:22:24;2.00;;;1.80;;
10637;SDS011;47007;49.252;8.904;2023-08-06T02:23:07;3.58;;;1.70;;
10637;SDS011;47007;49.252;8.904;2023-08-06T02:23:49;4.00;;;1.90;;
10637;SDS011;47007;49.252;8.904;2023-08-06T02:24:30;1.63;;;1.52;;
10637;SDS011;47007;49.252;8.904;2023-08-06T02:25:12;1.73;;;1.58;;
10637;SDS011;47007;49.252;8.904;2023-08-06T02:25:58;2.38;;;1.40;;
10637;SDS011;47007;49.252;8.904;2023-08-06T02:26:41;1.73;;;1.60;;
10637;SDS011;47007;49.252;8.904;2023-08-06T02:27:23;1.73;;;1.60;;
10637;SDS011;47007;49.252;8.904;2023-08-06T02:28:04;1.58;;;1.48;;
10637;SDS011;47007;49.252;8.904;2023-08-06T02:28:46;1.77;;;1.67;;
10637;SDS011;47007;49.252;8.904;2023-08-06T02:29:28;1.70;;;1.60;;
10637;SDS011;47007;49.252;8.904;2023-08-06T02:30:10;1.60;;;1.50;;
10637;SDS011;47007;49.252;8.904;2023-08-06T02:30:53;1.92;;;1.83;;
10637;SDS011;47007;49.252;8.904;2023-08-06T02:31:35;1.70;;;1.60;;
10637;SDS011;47007;49.252;8.904;2023-08-06T02:32:16;2.42;;;1.80;;
10637;SDS011;47007;49.252;8.904;2023-08-06T02:32:58;1.65;;;1.55;;
10637;SDS011;47007;49.252;8.904;2023-08-06T02:33:41;1.60;;;1.50;;
10637;SDS011;47007;49.252;8.904;2023-08-06T02:34:23;1.52;;;1.42;;
10637;SDS011;47007;49.252;8.904;2023-08-06T02:35:06;2.15;;;1.50;;
10637;SDS011;47007;49.252;8.904;2023-08-06T02:35:48;1.38;;;1.27;;
10637;SDS011;47007;49.252;8.904;2023-08-06T02:36:30;1.70;;;1.60;;
10637;SDS011;47007;49.252;8.904;2023-08-06T02:37:13;1.40;;;1.30;;
10637;SDS011;47007;49.252;8.904;2023-08-06T02:37:55;1.63;;;1.20;;
10637;SDS011;47007;49.252;8.904;2023-08-06T02:38:36;2.40;;;1.67;;
10637;SDS011;47007;49.252;8.904;2023-08-06T02:39:18;1.88;;;1.77;;
10637;SDS011;47007;49.252;8.904;2023-08-06T02:40:00;1.70;;;1.60;;
10637;SDS011;47007;49.252;8.904;2023-08-06T02:40:43;1.73;;;1.63;;
10637;SDS011;47007;49.252;8.904;2023-08-06T02:41:26;1.63;;;1.42;;
10637;SDS011;47007;49.252;8.904;2023-08-06T02:42:08;2.17;;;1.40;;
10637;SDS011;47007;49.252;8.904;2023-08-06T02:42:50;3.28;;;1.40;;
10637;SDS011;47007;49.252;8.904;2023-08-06T02:43:32;1.90;;;1.63;;
10637;SDS011;47007;49.252;8.904;2023-08-06T02:44:14;1.88;;;1.77;;
10637;SDS011;47007;49.252;8.904;2023-08-06T02:44:57;1.73;;;1.63;;
10637;SDS011;47007;49.252;8.904;2023-08-06T02:45:39;1.65;;;1.50;;
10637;SDS011;47007;49.252;8.904;2023-08-06T02:46:21;1.83;;;1.42;;
10637;SDS011;47007;49.252;8.904;2023-08-06T02:47:03;1.60;;;1.50;;
10637;SDS011;47007;49.252;8.904;2023-08-06T02:47:45;3.50;;;1.90;;
10637;SDS011;47007;49.252;8.904;2023-08-06T02:48:27;1.50;;;1.40;;
10637;SDS011;47007;49.252;8.904;2023-08-06T02:49:09;2.50;;;1.40;;
10637;SDS011;47007;49.252;8.904;2023-08-06T02:49:51;1.48;;;1.38;;
10637;SDS011;47007;49.252;8.904;2023-08-06T02:50:40;1.90;;;1.80;;
10637;SDS011;47007;49.252;8.904;2023-08-06T02:51:23;1.45;;;1.35;;
10637;SDS011;47007;49.252;8.904;2023-08-06T02:52:05;1.67;;;1.30;;
10637;SDS011;47007;49.252;8.904;2023-08-06T02:52:47;1.77;;;1.45;;
10637;SDS011;47007;49.252;8.904;2023-08-06T02:53:29;2.92;;;1.67;;
10637;SDS011;47007;49.252;8.904;2023-08-06T02:54:13;1.55;;;1.45;;
10637;SDS011;47007;49.252;8.904;2023-08-06T02:54:55;2.30;;;1.80;;
10637;SDS011;47007;49.252;8.904;2023-08-06T02:55:36;1.38;;;1.27;;
10637;SDS011;47007;49.252;8.904;2023-08-06T02:56:25;2.25;;;1.60;;
10637;SDS011;47007;49.252;8.904;2023-08-06T02:57:22;1.20;;;1.20;;
10637;SDS011;47007;49.252;8.904;2023-08-06T02:58:05;1.52;;;1.42;;
10637;SDS011;47007;49.252;8.904;2023-08-06T02:58:51;1.42;;;1.33;;
10637;SDS011;47007;49.252;8.904;2023-08-06T02:59:45;1.52;;;1.42;;
10637;SDS011;47007;49.252;8.904;2023-08-06T03:00:32;1.83;;;1.70;;
10637;SDS011;47007;49.252;8.904;2023-08-06T03:01:14;1.70;;;1.60;;
10637;SDS011;47007;49.252;8.904;2023-08-06T03:02:02;1.45;;;1.35;;
10637;SDS011;47007;49.252;8.904;2023-08-06T03:03:03;1.70;;;1.60;;
10637;SDS011;47007;49.252;8.904;2023-08-06T03:03:55;1.67;;;1.40;;
10637;SDS011;47007;49.252;8.904;2023-08-06T03:04:43;1.98;;;1.50;;
10637;SDS011;47007;49.252;8.904;2023-08-06T03:05:26;1.15;;;1.13;;
10637;SDS011;47007;49.252;8.904;2023-08-06T03:06:08;1.45;;;1.30;;
10637;SDS011;47007;49.252;8.904;2023-08-06T03:06:59;1.80;;;1.40;;
10637;SDS011;47007;49.252;8.904;2023-08-06T03:07:48;1.08;;;1.08;;
10637;SDS011;47007;49.252;8.904;2023-08-06T03:08:35;1.60;;;1.50;;
10637;SDS011;47007;49.252;8.904;2023-08-06T03:09:18;1.50;;;1.40;;
10637;SDS011;47007;49.252;8.904;2023-08-06T03:10:01;1.15;;;1.05;;
10637;SDS011;47007;49.252;8.904;2023-08-06T03:10:43;1.58;;;1.30;;
10637;SDS011;47007;49.252;8.904;2023-08-06T03:11:25;0.82;;;0.82;;
10637;SDS011;47007;49.252;8.904;2023-08-06T03:12:11;1.20;;;1.10;;
10637;SDS011;47007;49.252;8.904;2023-08-06T03:12:54;1.10;;;1.00;;
10637;SDS011;47007;49.252;8.904;2023-08-06T03:13:37;1.25;;;1.15;;
10637;SDS011;47007;49.252;8.904;2023-08-06T03:14:18;1.65;;;1.30;;
10637;SDS011;47007;49.252;8.904;2023-08-06T03:15:00;1.90;;;1.10;;
10637;SDS011;47007;49.252;8.904;2023-08-06T03:15:42;2.78;;;1.20;;
10637;SDS011;47007;49.252;8.904;2023-08-06T03:16:26;2.03;;;0.90;;
10637;SDS011;47007;49.252;8.904;2023-08-06T03:17:08;1.00;;;1.00;;
10637;SDS011;47007;49.252;8.904;2023-08-06T03:17:51;1.10;;;1.00;;
10637;SDS011;47007;49.252;8.904;2023-08-06T03:18:35;1.65;;;1.23;;
10637;SDS011;47007;49.252;8.904;2023-08-06T03:19:19;1.48;;;1.05;;
10637;SDS011;47007;49.252;8.904;2023-08-06T03:20:01;2.55;;;0.90;;
10637;SDS011;47007;49.252;8.904;2023-08-06T03:20:44;1.83;;;0.90;;
10637;SDS011;47007;49.252;8.904;2023-08-06T03:21:27;1.08;;;0.75;;
10637;SDS011;47007;49.252;8.904;2023-08-06T03:22:08;1.17;;;0.98;;
10637;SDS011;47007;49.252;8.904;2023-08-06T03:22:52;0.93;;;0.88;;
10637;SDS011;47007;49.252;8.904;2023-08-06T03:23:34;1.63;;;1.00;;
10637;SDS011;47007;49.252;8.904;2023-08-06T03:24:16;2.05;;;0.90;;
10637;SDS011;47007;49.252;8.904;2023-08-06T03:24:59;0.93;;;0.90;;
10637;SDS011;47007;49.252;8.904;2023-08-06T03:25:42;0.88;;;0.70;;
10637;SDS011;47007;49.252;8.904;2023-08-06T03:26:23;2.25;;;0.90;;
10637;SDS011;47007;49.252;8.904;2023-08-06T03:27:05;0.98;;;0.90;;
10637;SDS011;47007;49.252;8.904;2023-08-06T03:27:47;1.65;;;0.82;;
10637;SDS011;47007;49.252;8.904;2023-08-06T03:28:32;1.45;;;0.90;;
10637;SDS011;47007;49.252;8.904;2023-08-06T03:29:14;1.48;;;0.88;;
10637;SDS011;47007;49.252;8.904;2023-08-06T03:29:57;2.13;;;0.70;;
10637;SDS011;47007;49.252;8.904;2023-08-06T03:30:40;1.15;;;1.02;;
10637;SDS011;47007;49.252;8.904;2023-08-06T03:31:24;2.42;;;0.80;;
10637;SDS011;47007;49.252;8.904;2023-08-06T03:32:06;1.25;;;0.90;;
10637;SDS011;47007;49.252;8.904;2023-08-06T03:32:49;0.90;;;0.70;;
10637;SDS011;47007;49.252;8.904;2023-08-06T03:33:33;1.15;;;0.90;;
10637;SDS011;47007;49.252;8.904;2023-08-06T03:34:17;1.55;;;0.73;;
10637;SDS011;47007;49.252;8.904;2023-08-06T03:35:00;1.17;;;0.93;;
10637;SDS011;47007;49.252;8.904;2023-08-06T03:35:44;1.25;;;1.02;;
10637;SDS011;47007;49.252;8.904;2023-08-06T03:36:26;1.25;;;0.80;;
10637;SDS011;47007;49.252;8.904;2023-08-06T03:37:08;0.75;;;0.70;;
10637;SDS011;47007;49.252;8.904;2023-08-06T03:37:50;2.58;;;1.00;;
10637;SDS011;47007;49.252;8.904;2023-08-06T03:38:32;2.42;;;0.85;;
10637;SDS011;47007;49.252;8.904;2023-08-06T03:39:15;2.50;;;1.40;;
10637;SDS011;47007;49.252;8.904;2023-08-06T03:39:57;1.00;;;0.90;;
10637;SDS011;47007;49.252;8.904;2023-08-06T03:40:39;1.52;;;0.90;;
10637;SDS011;47007;49.252;8.904;2023-08-06T03:41:21;1.67;;;0.80;;
10637;SDS011;47007;49.252;8.904;2023-08-06T03:42:03;2.33;;;1.10;;
10637;SDS011;47007;49.252;8.904;2023-08-06T03:42:45;3.05;;;1.15;;
10637;SDS011;47007;49.252;8.904;2023-08-06T03:43:26;2.30;;;0.80;;
10637;SDS011;47007;49.252;8.904;2023-08-06T03:44:09;2.60;;;1.10;;
10637;SDS011;47007;49.252;8.904;2023-08-06T03:44:50;2.03;;;0.70;;
10637;SDS011;47007;49.252;8.904;2023-08-06T03:45:32;2.03;;;0.90;;
10637;SDS011;47007;49.252;8.904;2023-08-06T03:46:14;1.52;;;0.80;;
10637;SDS011;47007;49.252;8.904;2023-08-06T03:46:56;1.23;;;0.75;;
10637;SDS011;47007;49.252;8.904;2023-08-06T03:47:38;1.48;;;1.05;;
10637;SDS011;47007;49.252;8.904;2023-08-06T03:48:21;0.98;;;0.60;;
10637;SDS011;47007;49.252;8.904;2023-08-06T03:49:02;1.63;;;0.65;;
10637;SDS011;47007;49.252;8.904;2023-08-06T03:49:44;2.03;;;0.90;;
10637;SDS011;47007;49.252;8.904;2023-08-06T03:50:27;1.98;;;0.90;;
10637;SDS011;47007;49.252;8.904;2023-08-06T03:51:09;2.60;;;0.95;;
10637;SDS011;47007;49.252;8.904;2023-08-06T03:51:52;3.50;;;0.80;;
10637;SDS011;47007;49.252;8.904;2023-08-06T03:52:34;2.50;;;0.90;;
10637;SDS011;47007;49.252;8.904;2023-08-06T03:53:16;1.55;;;0.85;;
10637;SDS011;47007;49.252;8.904;2023-08-06T03:53:58;1.63;;;1.00;;
10637;SDS011;47007;49.252;8.904;2023-08-06T03:54:39;1.20;;;0.60;;
10637;SDS011;47007;49.252;8.904;2023-08-06T03:55:22;1.55;;;0.70;;
10637;SDS011;47007;49.252;8.904;2023-08-06T03:56:03;1.98;;;0.80;;
10637;SDS011;47007;49.252;8.904;2023-08-06T03:56:46;2.25;;;0.70;;
10637;SDS011;47007;49.252;8.904;2023-08-06T03:57:30;2.22;;;0.60;;
10637;SDS011;47007;49.252;8.904;2023-08-06T03:58:12;1.98;;;0.80;;
10637;SDS011;47007;49.252;8.904;2023-08-06T03:58:54;1.35;;;0.80;;
10637;SDS011;47007;49.252;8.904;2023-08-06T03:59:35;1.50;;;0.90;;
10637;SDS011;47007;49.252;8.904;2023-08-06T04:00:17;1.42;;;0.95;;
10637;SDS011;47007;49.252;8.904;2023-08-06T04:01:04;1.33;;;0.60;;
10637;SDS011;47007;49.252;8.904;2023-08-06T04:01:55;1.92;;;0.90;;
10637;SDS011;47007;49.252;8.904;2023-08-06T04:02:38;0.95;;;0.73;;
10637;SDS011;47007;49.252;8.904;2023-08-06T04:03:19;2.25;;;1.00;;
10637;SDS011;47007;49.252;8.904;2023-08-06T04:04:01;1.20;;;0.70;;
10637;SDS011;47007;49.252;8.904;2023-08-06T04:04:43;1.70;;;0.90;;
10637;SDS011;47007;49.252;8.904;2023-08-06T04:05:25;2.13;;;0.95;;
10637;SDS011;47007;49.252;8.904;2023-08-06T04:06:06;1.15;;;0.70;;
10637;SDS011;47007;49.252;8.904;2023-08-06T04:06:50;2.22;;;1.50;;
10637;SDS011;47007;49.252;8.904;2023-08-06T04:07:32;3.05;;;1.23;;
10637;SDS011;47007;49.252;8.904;2023-08-06T04:08:14;1.30;;;0.77;;
10637;SDS011;47007;49.252;8.904;2023-08-06T04:08:55;1.45;;;0.80;;
10637;SDS011;47007;49.252;8.904;2023-08-06T04:09:52;2.15;;;0.80;;
10637;SDS011;47007;49.252;8.904;2023-08-06T04:10:36;1.02;;;0.90;;
10637;SDS011;47007;49.252;8.904;2023-08-06T04:11:17;1.60;;;0.70;;
10637;SDS011;47007;49.252;8.904;2023-08-06T04:11:59;1.85;;;0.73;;
10637;SDS011;47007;49.252;8.904;2023-08-06T04:12:44;3.28;;;0.63;;
10637;SDS011;47007;49.252;8.904;2023-08-06T04:13:26;2.05;;;0.63;;
10637;SDS011;47007;49.252;8.904;2023-08-06T04:14:08;1.52;;;0.90;;
10637;SDS011;47007;49.252;8.904;2023-08-06T04:14:50;2.28;;;0.68;;
10637;SDS011;47007;49.252;8.904;2023-08-06T04:15:33;1.40;;;0.65;;
10637;SDS011;47007;49.252;8.904;2023-08-06T04:16:16;5.20;;;0.95;;
10637;SDS011;47007;49.252;8.904;2023-08-06T04:16:57;2.90;;;0.60;;
10637;SDS011;47007;49.252;8.904;2023-08-06T04:17:39;1.02;;;0.50;;
10637;SDS011;47007;49.252;8.904;2023-08-06T04:18:21;1.75;;;0.55;;
10637;SDS011;47007;49.252;8.904;2023-08-06T04:19:03;4.97;;;0.90;;
10637;SDS011;47007;49.252;8.904;2023-08-06T04:19:45;3.50;;;0.68;;
10637;SDS011;47007;49.252;8.904;2023-08-06T04:20:26;1.65;;;0.70;;
10637;SDS011;47007;49.252;8.904;2023-08-06T04:21:08;1.58;;;0.52;;
10637;SDS011;47007;49.252;8.904;2023-08-06T04:21:50;1.63;;;0.82;;
10637;SDS011;47007;49.252;8.904;2023-08-06T04:22:32;2.20;;;0.70;;
10637;SDS011;47007;49.252;8.904;2023-08-06T04:23:14;1.00;;;0.55;;
10637;SDS011;47007;49.252;8.904;2023-08-06T04:23:56;1.30;;;0.55;;
10637;SDS011;47007;49.252;8.904;2023-08-06T04:24:38;1.98;;;0.70;;
10637;SDS011;47007;49.252;8.904;2023-08-06T04:25:20;3.67;;;0.68;;
10637;SDS011;47007;49.252;8.904;2023-08-06T04:26:02;1.23;;;0.90;;